createdAt,value
2018-08-11T00:00:57.376Z,96324.69
2018-08-11T00:03:26.567Z,96324.43
2018-08-11T00:05:55.781Z,96323.89
2018-08-11T00:08:24.937Z,96320.65
2018-08-11T00:10:54.170Z,96313.63
2018-08-11T00:13:23.317Z,96317.67
2018-08-11T00:15:52.483Z,96310.95
2018-08-11T00:18:21.664Z,96314.19
2018-08-11T00:20:50.856Z,96316.32
2018-08-11T00:23:20.069Z,96312.56
2018-08-11T00:25:49.278Z,96317.39
2018-08-11T00:28:18.476Z,96314.72
2018-08-11T00:30:47.665Z,96317.67
2018-08-11T00:33:16.868Z,96313.36
2018-08-11T00:35:46.033Z,96310.66
2018-08-11T00:38:15.217Z,96310.89
2018-08-11T00:40:44.437Z,96318.69
2018-08-11T00:43:13.607Z,96314.12
2018-08-11T00:45:42.785Z,96308.21
2018-08-11T00:48:11.957Z,96306.84
2018-08-11T00:50:41.111Z,96304.42
2018-08-11T00:53:10.310Z,96299.86
2018-08-11T00:55:39.481Z,96297.97
2018-08-11T00:58:08.669Z,96304.41
2018-08-11T01:00:37.869Z,96296.89
2018-08-11T01:03:07.308Z,96300.66
2018-08-11T01:05:36.498Z,96299.83
2018-08-11T01:08:05.680Z,96298.76
2018-08-11T01:10:34.868Z,96294.72
2018-08-11T01:13:04.063Z,96289.86
2018-08-11T01:15:33.235Z,96289.60
2018-08-11T01:18:02.399Z,96287.16
2018-08-11T01:20:31.588Z,96286.91
2018-08-11T01:23:00.764Z,96293.38
2018-08-11T01:25:29.949Z,96285.01
2018-08-11T01:27:59.137Z,96283.38
2018-08-11T01:30:28.335Z,96289.34
2018-08-11T01:32:57.488Z,96283.11
2018-08-11T01:35:26.669Z,96291.18
2018-08-11T01:37:55.838Z,96289.06
2018-08-11T01:40:25.039Z,96286.05
2018-08-11T01:42:54.214Z,96286.86
2018-08-11T01:45:23.376Z,96292.81
2018-08-11T01:47:52.565Z,96291.47
2018-08-11T01:50:21.757Z,96295.78
2018-08-11T01:52:50.945Z,96295.24
2018-08-11T01:55:20.137Z,96285.54
2018-08-11T01:57:49.330Z,96291.75
2018-08-11T02:00:20.997Z,96288.80
2018-08-11T02:02:50.176Z,96290.69
2018-08-11T02:05:19.380Z,96280.96
2018-08-11T02:07:48.552Z,96282.60
2018-08-11T02:10:19.993Z,96283.39
2018-08-11T02:12:49.560Z,96281.78
2018-08-11T02:15:18.737Z,96283.39
2018-08-11T02:17:47.934Z,96276.65
2018-08-11T02:20:18.595Z,96278.78
2018-08-11T02:22:48.688Z,96274.45
2018-08-11T02:25:17.901Z,96271.25
2018-08-11T02:27:47.101Z,96269.08
2018-08-11T02:30:17.510Z,96270.16
2018-08-11T02:32:46.715Z,96266.39
2018-08-11T02:35:16.011Z,96261.24
2018-08-11T02:37:45.204Z,96258.02
2018-08-11T02:40:16.116Z,96259.36
2018-08-11T02:42:45.281Z,96257.73
2018-08-11T02:45:17.251Z,96256.11
2018-08-11T02:47:47.454Z,96256.94
2018-08-11T02:50:16.655Z,96255.82
2018-08-11T02:52:45.817Z,96262.05
2018-08-11T02:55:15.030Z,96251.29
2018-08-11T02:57:44.196Z,96255.31
2018-08-11T03:00:13.526Z,96260.45
2018-08-11T03:02:42.693Z,96256.13
2018-08-11T03:05:11.861Z,96259.63
2018-08-11T03:07:41.036Z,96251.23
2018-08-11T03:10:11.427Z,96253.91
2018-08-11T03:12:41.246Z,96253.67
2018-08-11T03:15:12.290Z,96255.52
2018-08-11T03:17:41.892Z,96253.06
2018-08-11T03:20:13.974Z,96252.27
2018-08-11T03:22:43.689Z,96254.15
2018-08-11T03:25:12.868Z,96258.22
2018-08-11T03:27:42.064Z,96257.67
2018-08-11T03:30:11.268Z,96255.49
2018-08-11T03:32:40.461Z,96257.93
2018-08-11T03:35:09.673Z,96257.13
2018-08-11T03:37:38.874Z,96259.03
2018-08-11T03:40:09.785Z,96261.73
2018-08-11T03:42:39.227Z,96257.16
2018-08-11T03:45:08.462Z,96260.36
2018-08-11T03:47:37.703Z,96261.99
2018-08-11T03:50:07.305Z,96265.77
2018-08-11T03:52:36.656Z,96265.20
2018-08-11T03:55:06.147Z,96273.53
2018-08-11T03:57:35.316Z,96276.74
2018-08-11T04:00:07.304Z,96272.13
2018-08-11T04:02:36.482Z,96273.73
2018-08-11T04:05:05.737Z,96273.22
2018-08-11T04:07:34.905Z,96279.67
2018-08-11T04:10:04.792Z,96279.34
2018-08-11T04:12:34.022Z,96277.52
2018-08-11T04:15:03.206Z,96278.88
2018-08-11T04:17:39.669Z,96282.05
2018-08-11T04:20:10.565Z,96281.73
2018-08-11T04:22:39.749Z,96280.89
2018-08-11T04:25:09.397Z,96287.62
2018-08-11T04:27:39.196Z,96279.57
2018-08-11T04:30:10.221Z,96278.78
2018-08-11T04:32:39.469Z,96289.22
2018-08-11T04:35:08.932Z,96277.95
2018-08-11T04:37:38.182Z,96286.34
2018-08-11T04:40:07.369Z,96288.49
2018-08-11T04:42:36.572Z,96285.52
2018-08-11T04:45:06.538Z,96285.80
2018-08-11T04:47:35.737Z,96290.64
2018-08-11T04:50:05.341Z,96290.91
2018-08-11T04:52:34.987Z,96290.98
2018-08-11T04:55:04.355Z,96294.75
2018-08-11T04:57:33.647Z,96294.15
2018-08-11T05:00:02.849Z,96296.92
2018-08-11T05:02:32.056Z,96291.33
2018-08-11T05:05:01.245Z,96299.72
2018-08-11T05:07:30.417Z,96300.52
2018-08-11T05:09:59.597Z,96297.53
2018-08-11T05:12:28.917Z,96300.53
2018-08-11T05:14:58.088Z,96299.47
2018-08-11T05:17:27.311Z,96292.52
2018-08-11T05:19:56.603Z,96302.23
2018-08-11T05:22:25.638Z,96307.62
2018-08-11T05:24:54.857Z,96300.08
2018-08-11T05:27:24.036Z,96308.42
2018-08-11T05:29:53.202Z,96312.19
2018-08-11T05:32:22.367Z,96318.38
2018-08-11T05:34:51.548Z,96317.60
2018-08-11T05:37:20.716Z,96318.69
2018-08-11T05:39:49.888Z,96326.23
2018-08-11T05:42:19.064Z,96329.48
2018-08-11T05:44:48.241Z,96323.56
2018-08-11T05:47:17.408Z,96327.60
2018-08-11T05:49:46.613Z,96324.13
2018-08-11T05:52:15.821Z,96326.05
2018-08-11T05:54:45.017Z,96324.16
2018-08-11T05:57:20.400Z,96326.02
2018-08-11T05:59:49.576Z,96319.56
2018-08-11T06:02:18.740Z,96324.41
2018-08-11T06:04:47.949Z,96330.61
2018-08-11T06:07:17.164Z,96332.78
2018-08-11T06:09:46.644Z,96332.73
2018-08-11T06:12:15.810Z,96334.61
2018-08-11T06:14:44.981Z,96338.16
2018-08-11T06:17:14.195Z,96340.30
2018-08-11T06:19:43.401Z,96337.31
2018-08-11T06:22:12.557Z,96337.00
2018-08-11T06:24:41.729Z,96341.61
2018-08-11T06:27:10.909Z,96343.74
2018-08-11T06:29:40.070Z,96339.94
2018-08-11T06:32:09.308Z,96344.55
2018-08-11T06:34:38.461Z,96340.21
2018-08-11T06:37:07.618Z,96343.41
2018-08-11T06:39:36.790Z,96345.81
2018-08-11T06:42:06.109Z,96346.58
2018-08-11T06:44:35.295Z,96344.61
2018-08-11T06:47:04.494Z,96347.80
2018-08-11T06:49:34.040Z,96349.95
2018-08-11T06:52:03.353Z,96355.81
2018-08-11T06:54:32.513Z,96352.30
2018-08-11T06:57:01.739Z,96346.34
2018-08-11T06:59:31.216Z,96351.45
2018-08-11T07:02:00.952Z,96350.86
2018-08-11T07:04:30.149Z,96351.66
2018-08-11T07:06:59.359Z,96348.62
2018-08-11T07:09:28.562Z,96349.71
2018-08-11T07:11:57.841Z,96352.41
2018-08-11T07:14:27.021Z,96351.28
2018-08-11T07:16:56.234Z,96349.83
2018-08-11T07:19:25.716Z,96358.15
2018-08-11T07:21:54.938Z,96353.44
2018-08-11T07:24:24.105Z,96353.15
2018-08-11T07:26:53.349Z,96356.96
2018-08-11T07:29:22.547Z,96349.25
2018-08-11T07:31:51.762Z,96344.22
2018-08-11T07:34:20.957Z,96341.81
2018-08-11T07:36:50.137Z,96350.56
2018-08-11T07:39:19.334Z,96345.20
2018-08-11T07:41:48.500Z,96346.00
2018-08-11T07:44:17.664Z,96346.56
2018-08-11T07:46:46.853Z,96346.86
2018-08-11T07:49:16.026Z,96357.41
2018-08-11T07:51:45.203Z,96347.84
2018-08-11T07:54:14.436Z,96359.20
2018-08-11T07:56:43.649Z,96354.45
2018-08-11T07:59:12.893Z,96362.84
2018-08-11T08:01:42.135Z,96363.81
2018-08-11T08:04:11.421Z,96363.63
2018-08-11T08:06:40.585Z,96363.39
2018-08-11T08:09:12.321Z,96364.80
2018-08-11T08:11:41.941Z,96365.34
2018-08-11T08:14:11.960Z,96366.45
2018-08-11T08:16:41.169Z,96364.43
2018-08-11T08:19:10.413Z,96368.89
2018-08-11T08:21:39.580Z,96377.86
2018-08-11T08:24:08.781Z,96372.09
2018-08-11T08:26:38.055Z,96378.56
2018-08-11T08:29:07.148Z,96382.13
2018-08-11T08:31:36.359Z,96375.42
2018-08-11T08:34:05.861Z,96381.67
2018-08-11T08:36:35.072Z,96382.41
2018-08-11T08:39:06.605Z,96391.64
2018-08-11T08:41:35.801Z,96386.92
2018-08-11T08:44:05.009Z,96384.75
2018-08-11T08:46:34.225Z,96387.20
2018-08-11T08:49:03.421Z,96384.69
2018-08-11T08:51:32.634Z,96391.42
2018-08-11T08:54:01.846Z,96396.77
2018-08-11T08:56:31.049Z,96391.49
2018-08-11T08:59:00.301Z,96392.16
2018-08-11T09:01:29.457Z,96395.33
2018-08-11T09:03:58.681Z,96388.53
2018-08-11T09:06:27.861Z,96385.80
2018-08-11T09:08:57.060Z,96393.61
2018-08-11T09:11:26.229Z,96386.72
2018-08-11T09:13:55.452Z,96382.80
2018-08-11T09:16:24.697Z,96388.94
2018-08-11T09:18:53.908Z,96379.25
2018-08-11T09:21:23.117Z,96385.41
2018-08-11T09:23:52.409Z,96389.78
2018-08-11T09:26:21.714Z,96390.73
2018-08-11T09:28:50.914Z,96380.41
2018-08-11T09:31:20.109Z,96384.31
2018-08-11T09:33:49.305Z,96385.12
2018-08-11T09:36:18.472Z,96389.66
2018-08-11T09:38:47.658Z,96383.23
2018-08-11T09:41:16.842Z,96387.14
2018-08-11T09:43:49.525Z,96378.14
2018-08-11T09:46:18.716Z,96382.03
2018-08-11T09:48:47.929Z,96383.11
2018-08-11T09:51:17.156Z,96380.27
2018-08-11T09:53:46.342Z,96381.11
2018-08-11T09:56:15.633Z,96377.66
2018-08-11T09:58:44.835Z,96375.75
2018-08-11T10:01:19.336Z,96364.80
2018-08-11T10:03:48.562Z,96368.62
2018-08-11T10:06:17.863Z,96369.11
2018-08-11T10:08:47.220Z,96361.52
2018-08-11T10:11:16.513Z,96365.14
2018-08-11T10:13:45.821Z,96364.66
2018-08-11T10:16:15.074Z,96361.19
2018-08-11T10:18:44.272Z,96364.52
2018-08-11T10:21:13.474Z,96358.89
2018-08-11T10:23:42.633Z,96365.29
2018-08-11T10:26:11.829Z,96371.49
2018-08-11T10:28:41.001Z,96364.03
2018-08-11T10:31:10.169Z,96363.44
2018-08-11T10:33:39.368Z,96358.64
2018-08-11T10:36:08.566Z,96366.77
2018-08-11T10:38:38.024Z,96360.93
2018-08-11T10:41:07.234Z,96355.66
2018-08-11T10:43:36.413Z,96361.02
2018-08-11T10:46:05.608Z,96357.58
2018-08-11T10:48:34.785Z,96349.97
2018-08-11T10:51:03.997Z,96349.17
2018-08-11T10:53:33.180Z,96338.98
2018-08-11T10:56:02.382Z,96349.28
2018-08-11T10:58:31.553Z,96341.91
2018-08-11T11:01:00.722Z,96335.91
2018-08-11T11:03:29.926Z,96338.62
2018-08-11T11:05:59.072Z,96337.45
2018-08-11T11:08:28.361Z,96331.13
2018-08-11T11:10:57.413Z,96343.30
2018-08-11T11:13:26.589Z,96327.95
2018-08-11T11:15:55.752Z,96330.02
2018-08-11T11:18:24.989Z,96329.89
2018-08-11T11:20:54.214Z,96331.45
2018-08-11T11:23:23.333Z,96323.19
2018-08-11T11:25:52.516Z,96323.12
2018-08-11T11:28:21.729Z,96321.29
2018-08-11T11:30:50.903Z,96321.77
2018-08-11T11:33:20.069Z,96318.59
2018-08-11T11:35:49.290Z,96308.23
2018-08-11T11:38:18.502Z,96312.29
2018-08-11T11:40:47.697Z,96315.34
2018-08-11T11:43:16.870Z,96312.56
2018-08-11T11:45:46.077Z,96319.66
2018-08-11T11:48:15.270Z,96314.88
2018-08-11T11:50:44.452Z,96308.59
2018-08-11T11:53:13.653Z,96305.03
2018-08-11T11:55:42.863Z,96311.00
2018-08-11T11:58:12.044Z,96303.80
2018-08-11T12:00:41.229Z,96297.93
2018-08-11T12:03:10.467Z,96301.25
2018-08-11T12:05:39.653Z,96298.28
2018-08-11T12:08:08.842Z,96301.62
2018-08-11T12:10:38.036Z,96305.66
2018-08-11T12:13:07.577Z,96298.45
2018-08-11T12:15:36.744Z,96297.18
2018-08-11T12:18:06.338Z,96293.17
2018-08-11T12:20:35.612Z,96294.88
2018-08-11T12:23:04.785Z,96294.23
2018-08-11T12:25:34.062Z,96293.65
2018-08-11T12:28:03.230Z,96298.56
2018-08-11T12:30:32.405Z,96288.00
2018-08-11T12:33:01.575Z,96284.67
2018-08-11T12:35:30.889Z,96282.20
2018-08-11T12:38:00.304Z,96278.36
2018-08-11T12:40:29.378Z,96268.59
2018-08-11T12:42:58.561Z,96281.78
2018-08-11T12:45:27.730Z,96278.50
2018-08-11T12:47:57.090Z,96265.41
2018-08-11T12:50:26.306Z,96262.72
2018-08-11T12:52:55.512Z,96255.34
2018-08-11T12:55:24.709Z,96260.88
2018-08-11T12:57:53.873Z,96262.12
2018-08-11T13:00:23.085Z,96263.53
2018-08-11T13:02:52.297Z,96261.87
2018-08-11T13:05:21.466Z,96255.12
2018-08-11T13:07:50.713Z,96263.63
2018-08-11T13:10:19.905Z,96260.69
2018-08-11T13:12:49.089Z,96248.85
2018-08-11T13:15:18.335Z,96253.98
2018-08-11T13:17:47.533Z,96247.89
2018-08-11T13:20:16.730Z,96245.88
2018-08-11T13:22:45.911Z,96243.06
2018-08-11T13:25:15.130Z,96237.19
2018-08-11T13:27:44.365Z,96228.05
2018-08-11T13:30:13.536Z,96230.92
2018-08-11T13:32:42.804Z,96236.96
2018-08-11T13:35:11.984Z,96234.41
2018-08-11T13:37:41.154Z,96230.38
2018-08-11T13:40:10.346Z,96219.80
2018-08-11T13:42:39.534Z,96213.03
2018-08-11T13:45:08.710Z,96221.66
2018-08-11T13:47:37.941Z,96222.38
2018-08-11T13:50:07.746Z,96210.94
2018-08-11T13:52:36.961Z,96213.27
2018-08-11T13:55:06.224Z,96208.78
2018-08-11T13:57:35.333Z,96209.02
2018-08-11T14:00:05.805Z,96204.02
2018-08-11T14:02:35.025Z,96197.91
2018-08-11T14:05:04.194Z,96199.89
2018-08-11T14:07:33.424Z,96200.88
2018-08-11T14:10:02.554Z,96193.18
2018-08-11T14:12:31.778Z,96195.42
2018-08-11T14:15:01.005Z,96196.22
2018-08-11T14:17:30.117Z,96188.23
2018-08-11T14:19:59.325Z,96180.38
2018-08-11T14:22:28.523Z,96182.33
2018-08-11T14:24:57.854Z,96179.38
2018-08-11T14:27:27.045Z,96172.81
2018-08-11T14:29:56.352Z,96175.60
2018-08-11T14:32:25.508Z,96176.95
2018-08-11T14:34:54.672Z,96165.90
2018-08-11T14:37:23.865Z,96172.65
2018-08-11T14:39:53.056Z,96163.25
2018-08-11T14:42:22.240Z,96169.59
2018-08-11T14:44:51.431Z,96169.59
2018-08-11T14:47:20.612Z,96165.44
2018-08-11T14:49:49.797Z,96174.19
2018-08-11T14:52:18.974Z,96171.77
2018-08-11T14:54:48.137Z,96165.05
2018-08-11T14:57:17.335Z,96153.64
2018-08-11T14:59:46.505Z,96157.66
2018-08-11T15:02:15.695Z,96153.52
2018-08-11T15:04:44.893Z,96155.70
2018-08-11T15:07:14.050Z,96147.70
2018-08-11T15:09:43.269Z,96148.93
2018-08-11T15:12:12.461Z,96147.00
2018-08-11T15:14:41.673Z,96146.11
2018-08-11T15:17:10.871Z,96143.72
2018-08-11T15:19:40.078Z,96147.14
2018-08-11T15:22:09.240Z,96152.87
2018-08-11T15:24:38.415Z,96157.97
2018-08-11T15:27:07.637Z,96146.58
2018-08-11T15:29:36.853Z,96148.20
2018-08-11T15:32:06.008Z,96142.41
2018-08-11T15:34:35.193Z,96141.09
2018-08-11T15:37:04.377Z,96139.64
2018-08-11T15:39:33.637Z,96138.53
2018-08-11T15:42:02.817Z,96139.80
2018-08-11T15:44:31.989Z,96135.95
2018-08-11T15:47:01.151Z,96140.52
2018-08-11T15:49:30.365Z,96137.05
2018-08-11T15:51:59.606Z,96139.48
2018-08-11T15:54:28.797Z,96137.31
2018-08-11T15:56:57.977Z,96138.13
2018-08-11T15:59:27.157Z,96137.88
2018-08-11T16:01:56.313Z,96140.12
2018-08-11T16:04:25.472Z,96137.70
2018-08-11T16:06:54.668Z,96134.66
2018-08-11T16:09:23.878Z,96136.52
2018-08-11T16:11:53.045Z,96141.50
2018-08-11T16:14:22.242Z,96135.16
2018-08-11T16:16:51.441Z,96134.83
2018-08-11T16:19:20.614Z,96143.34
2018-08-11T16:21:49.793Z,96138.20
2018-08-11T16:24:19.124Z,96139.64
2018-08-11T16:26:48.352Z,96135.69
2018-08-11T16:29:17.557Z,96136.77
2018-08-11T16:31:46.701Z,96137.66
2018-08-11T16:34:15.901Z,96140.38
2018-08-11T16:36:45.065Z,96139.08
2018-08-11T16:39:14.252Z,96139.95
2018-08-11T16:41:43.453Z,96131.44
2018-08-11T16:44:12.626Z,96144.18
2018-08-11T16:46:41.833Z,96137.50
2018-08-11T16:49:10.997Z,96145.94
2018-08-11T16:51:40.227Z,96144.88
2018-08-11T16:54:09.391Z,96142.55
2018-08-11T16:56:38.569Z,96138.05
2018-08-11T16:59:07.741Z,96148.62
2018-08-11T17:01:36.932Z,96153.69
2018-08-11T17:04:06.104Z,96152.09
2018-08-11T17:06:35.281Z,96155.77
2018-08-11T17:09:07.788Z,96147.35
2018-08-11T17:11:36.977Z,96149.61
2018-08-11T17:14:06.712Z,96150.00
2018-08-11T17:16:36.269Z,96152.01
2018-08-11T17:19:05.692Z,96151.23
2018-08-11T17:21:34.936Z,96152.91
2018-08-11T17:24:04.114Z,96152.01
2018-08-11T17:26:33.280Z,96149.41
2018-08-11T17:29:02.453Z,96154.77
2018-08-11T17:31:31.621Z,96144.97
2018-08-11T17:34:00.821Z,96140.36
2018-08-11T17:36:30.272Z,96140.89
2018-08-11T17:38:59.457Z,96144.81
2018-08-11T17:41:28.612Z,96146.69
2018-08-11T17:43:58.102Z,96150.31
2018-08-11T17:46:27.281Z,96145.61
2018-08-11T17:48:56.444Z,96150.89
2018-08-11T17:51:25.629Z,96149.72
2018-08-11T17:53:54.789Z,96149.18
2018-08-11T17:56:23.977Z,96151.01
2018-08-11T17:58:53.320Z,96145.95
2018-08-11T18:01:23.523Z,96147.80
2018-08-11T18:03:53.043Z,96152.03
2018-08-11T18:06:22.299Z,96149.30
2018-08-11T18:08:51.530Z,96149.42
2018-08-11T18:11:20.718Z,96144.53
2018-08-11T18:13:49.916Z,96147.83
2018-08-11T18:16:19.092Z,96156.66
2018-08-11T18:18:48.306Z,96159.08
2018-08-11T18:21:17.476Z,96158.01
2018-08-11T18:23:46.698Z,96152.66
2018-08-11T18:26:15.909Z,96148.12
2018-08-11T18:28:45.274Z,96155.16
2018-08-11T18:31:14.517Z,96153.98
2018-08-11T18:33:43.797Z,96160.28
2018-08-11T18:36:13.064Z,96153.53
2018-08-11T18:38:42.348Z,96160.74
2018-08-11T18:41:11.554Z,96162.06
2018-08-11T18:43:40.717Z,96168.66
2018-08-11T18:46:09.901Z,96166.99
2018-08-11T18:48:39.388Z,96170.33
2018-08-11T18:51:08.614Z,96168.92
2018-08-11T18:53:37.913Z,96173.44
2018-08-11T18:56:07.128Z,96177.31
2018-08-11T18:58:36.376Z,96178.69
2018-08-11T19:01:05.577Z,96180.20
2018-08-11T19:03:35.140Z,96179.51
2018-08-11T19:06:04.353Z,96181.26
2018-08-11T19:08:33.533Z,96184.59
2018-08-11T19:11:02.745Z,96185.78
2018-08-11T19:13:32.009Z,96177.72
2018-08-11T19:16:01.193Z,96178.88
2018-08-11T19:18:30.389Z,96189.77
2018-08-11T19:20:59.565Z,96192.59
2018-08-11T19:23:28.786Z,96196.73
2018-08-11T19:25:58.079Z,96193.83
2018-08-11T19:28:27.184Z,96202.58
2018-08-11T19:30:56.380Z,96205.36
2018-08-11T19:33:25.602Z,96207.48
2018-08-11T19:35:54.771Z,96205.86
2018-08-11T19:38:24.029Z,96207.22
2018-08-11T19:40:53.266Z,96203.45
2018-08-11T19:43:22.562Z,96204.30
2018-08-11T19:45:51.741Z,96201.12
2018-08-11T19:48:20.921Z,96200.30
2018-08-11T19:50:50.100Z,96207.15
2018-08-11T19:53:19.279Z,96203.15
2018-08-11T19:55:48.502Z,96199.83
2018-08-11T19:58:17.771Z,96195.02
2018-08-11T20:00:46.993Z,96196.41
2018-08-11T20:03:16.180Z,96204.03
2018-08-11T20:05:45.395Z,96199.76
2018-08-11T20:08:14.602Z,96203.55
2018-08-11T20:10:43.811Z,96205.99
2018-08-11T20:13:13.078Z,96205.78
2018-08-11T20:15:42.369Z,96203.65
2018-08-11T20:18:11.561Z,96202.66
2018-08-11T20:20:40.766Z,96203.77
2018-08-11T20:23:09.945Z,96208.14
2018-08-11T20:25:39.224Z,96205.73
2018-08-11T20:28:08.559Z,96202.52
2018-08-11T20:30:37.830Z,96208.53
2018-08-11T20:33:07.981Z,96203.20
2018-08-11T20:35:37.177Z,96201.85
2018-08-11T20:38:07.325Z,96197.28
2018-08-11T20:40:37.262Z,96203.80
2018-08-11T20:43:08.006Z,96209.02
2018-08-11T20:45:37.577Z,96205.58
2018-08-11T20:48:06.811Z,96207.72
2018-08-11T20:50:36.154Z,96208.23
2018-08-11T20:53:05.361Z,96211.08
2018-08-11T20:55:34.552Z,96211.62
2018-08-11T20:58:03.787Z,96213.03
2018-08-11T21:00:33.042Z,96209.23
2018-08-11T21:03:02.349Z,96203.22
2018-08-11T21:05:31.661Z,96201.87
2018-08-11T21:08:00.894Z,96209.34
2018-08-11T21:10:30.120Z,96204.38
2018-08-11T21:12:59.280Z,96208.36
2018-08-11T21:15:28.547Z,96206.43
2018-08-11T21:17:57.730Z,96207.19
2018-08-11T21:20:26.892Z,96211.36
2018-08-11T21:22:56.069Z,96207.60
2018-08-11T21:25:25.232Z,96202.23
2018-08-11T21:27:54.405Z,96203.80
2018-08-11T21:30:23.578Z,96201.16
2018-08-11T21:32:53.057Z,96202.05
2018-08-11T21:35:22.271Z,96203.30
2018-08-11T21:37:51.458Z,96203.30
2018-08-11T21:40:20.674Z,96203.56
2018-08-11T21:42:49.932Z,96204.49
2018-08-11T21:45:19.102Z,96206.96
2018-08-11T21:47:48.293Z,96201.90
2018-08-11T21:50:17.666Z,96201.38
2018-08-11T21:52:46.866Z,96199.03
2018-08-11T21:55:16.089Z,96194.85
2018-08-11T21:57:45.279Z,96194.37
2018-08-11T22:00:32.842Z,96195.64
2018-08-11T22:03:02.236Z,96195.48
2018-08-11T22:05:31.469Z,96194.80
2018-08-11T22:08:01.491Z,96187.78
2018-08-11T22:10:31.097Z,96182.91
2018-08-11T22:13:00.261Z,96188.32
2018-08-11T22:15:29.514Z,96182.66
2018-08-11T22:17:58.677Z,96187.88
2018-08-11T22:20:27.861Z,96183.39
2018-08-11T22:22:57.062Z,96186.61
2018-08-11T22:25:26.611Z,96182.59
2018-08-11T22:27:55.830Z,96178.36
2018-08-11T22:30:25.043Z,96174.03
2018-08-11T22:32:54.480Z,96179.20
2018-08-11T22:35:23.659Z,96182.30
2018-08-11T22:37:52.929Z,96184.55
2018-08-11T22:40:22.107Z,96177.80
2018-08-11T22:42:51.281Z,96180.24
2018-08-11T22:45:20.464Z,96179.16
2018-08-11T22:47:49.640Z,96173.22
2018-08-11T22:50:19.201Z,96172.42
2018-08-11T22:52:48.403Z,96177.27
2018-08-11T22:55:17.598Z,96174.31
2018-08-11T22:57:46.811Z,96174.59
2018-08-11T23:00:19.949Z,96172.76
2018-08-11T23:02:49.249Z,96169.76
2018-08-11T23:05:20.401Z,96174.38
2018-08-11T23:07:49.601Z,96167.86
2018-08-11T23:10:19.064Z,96166.45
2018-08-11T23:12:48.344Z,96163.17
2018-08-11T23:15:19.634Z,96164.25
2018-08-11T23:17:49.924Z,96157.36
2018-08-11T23:20:19.129Z,96149.50
2018-08-11T23:22:48.304Z,96149.49
2018-08-11T23:25:17.781Z,96147.75
2018-08-11T23:27:46.993Z,96147.23
2018-08-11T23:30:17.397Z,96145.03
2018-08-11T23:32:46.601Z,96146.63
2018-08-11T23:35:15.843Z,96143.47
2018-08-11T23:37:45.017Z,96143.20
2018-08-11T23:40:14.205Z,96142.95
2018-08-11T23:42:43.382Z,96134.08
2018-08-11T23:45:14.325Z,96134.43
2018-08-11T23:47:43.585Z,96130.61
2018-08-11T23:50:13.732Z,96130.90
2018-08-11T23:52:43.861Z,96129.80
2018-08-11T23:55:14.320Z,96130.09
2018-08-11T23:57:43.509Z,96128.32
